Time;durP1;ratioP1;P1;durP2;ratioP2;P2;SDS_P1;SDS_P2;PMS_P1;PMS_P2;Temp;Humidity;BMP_temperature;BMP_pressure;BME280_temperature;BME280_humidity;BME280_pressure;Samples;Min_cycle;Max_cycle;Signal;HPM_P1;HPM_P2
2022/02/05 00:00:51;;;;;;;31.60;18.30;;;;;;;3.80;80.67;99076.83;106085;1274;95160;-85
2022/02/05 00:03:28;;;;;;;29.20;17.80;;;;;;;3.78;80.23;99075.33;105934;1274;136777;-85
2022/02/05 00:06:04;;;;;;;29.60;17.50;;;;;;;3.76;80.14;99067.77;106107;1274;108883;-83
2022/02/05 00:08:51;;;;;;;28.80;16.80;;;;;;;3.76;80.04;99061.24;106735;1274;137817;-85
2022/02/05 00:40:08;;;;;;;34.00;19.80;;;;;;;3.84;79.39;99041.48;106659;1282;137321;-85
2022/02/05 00:42:42;;;;;;;37.00;21.50;;;;;;;3.83;79.30;99041.66;106769;1282;93342;-85
2022/02/05 00:45:15;;;;;;;34.00;21.50;;;;;;;3.83;79.33;99040.98;106674;1282;137132;-86
2022/02/05 00:47:48;;;;;;;37.60;21.20;;;;;;;3.81;79.32;99032.10;106702;1282;108987;-85
2022/02/05 00:50:24;;;;;;;34.70;20.10;;;;;;;3.80;79.15;99028.15;106778;1282;107790;-86
2022/02/05 00:53:01;;;;;;;30.00;18.70;;;;;;;3.79;79.35;99021.48;106682;1282;137799;-85
2022/02/05 00:55:36;;;;;;;30.70;18.60;;;;;;;3.79;79.36;99019.09;107225;1274;93341;-85
2022/02/05 00:58:08;;;;;;;35.60;20.50;;;;;;;3.80;79.02;99013.39;107569;1273;137722;-86
2022/02/05 01:00:40;;;;;;;36.10;20.10;;;;;;;3.82;79.16;99013.67;107701;1273;107736;-85
2022/02/05 01:03:12;;;;;;;36.00;20.80;;;;;;;3.84;78.98;99015.16;107576;1273;137543;-85
2022/02/05 01:05:44;;;;;;;40.00;20.30;;;;;;;3.83;79.19;99025.85;107722;1273;93375;-85
2022/02/05 01:08:17;;;;;;;33.50;19.00;;;;;;;3.82;79.12;99022.28;107668;1273;93128;-86
2022/02/05 01:10:49;;;;;;;29.90;18.60;;;;;;;3.81;79.17;99029.86;107571;1274;138624;-86
2022/02/05 01:13:21;;;;;;;32.40;18.10;;;;;;;3.83;79.29;99014.33;107676;1273;105821;-85
2022/02/05 01:16:03;;;;;;;34.00;18.40;;;;;;;3.87;79.04;99014.73;107582;1273;137715;-85
2022/02/05 01:18:39;;;;;;;33.10;18.60;;;;;;;3.90;78.97;99004.85;107453;1273;94626;-85
2022/02/05 01:21:19;;;;;;;33.10;18.10;;;;;;;3.92;79.01;99003.26;107546;1273;137097;-84
2022/02/05 01:23:55;;;;;;;30.20;18.10;;;;;;;3.95;78.91;99003.20;107322;1273;108953;-85
2022/02/05 01:26:32;;;;;;;33.10;19.50;;;;;;;3.97;78.59;99000.08;107693;1273;108874;-85
2022/02/05 01:29:21;;;;;;;32.70;18.50;;;;;;;3.96;78.71;98992.70;107439;1273;137072;-86
2022/02/05 01:31:57;;;;;;;31.60;18.70;;;;;;;3.95;78.39;98993.06;107682;1273;93442;-86
2022/02/05 01:34:35;;;;;;;32.80;18.90;;;;;;;3.94;78.47;98993.06;107548;1273;138312;-85
2022/02/05 01:51:45;;;;;;;31.80;19.10;;;;;;;3.87;78.83;98969.35;107544;1273;138215;-85
2022/02/05 01:54:33;;;;;;;32.70;18.70;;;;;;;3.84;78.78;98963.41;107699;1273;108843;-85
2022/02/05 01:57:10;;;;;;;35.50;17.60;;;;;;;3.83;78.87;98966.36;107593;1273;139927;-85
2022/02/05 02:04:46;;;;;;;28.60;17.10;;;;;;;3.83;78.94;98959.83;107624;1273;93661;-85
2022/02/05 02:05:51;;;;;;;28.60;18.20;;;;;;;3.88;78.81;98952.98;106020;1276;108657;-87
2022/02/05 02:14:39;;;;;;;29.40;17.20;;;;;;;3.87;78.76;98943.91;102576;1314;635382;-86
2022/02/05 02:20:26;;;;;;;29.70;16.50;;;;;;;3.85;78.77;98929.86;105207;1286;94456;-86
2022/02/05 02:23:13;;;;;;;27.90;16.50;;;;;;;3.86;78.83;98932.05;105073;1285;137353;-88
2022/02/05 02:25:57;;;;;;;27.60;16.50;;;;;;;3.88;78.86;98922.20;105232;1285;108874;-87
2022/02/05 02:28:45;;;;;;;29.30;17.80;;;;;;;3.88;78.68;98929.77;105106;1283;138981;-87
2022/02/05 02:31:21;;;;;;;30.30;17.70;;;;;;;3.90;78.80;98918.55;105395;1283;94470;-87
2022/02/05 02:33:57;;;;;;;26.60;16.90;;;;;;;3.89;78.74;98920.96;105442;1282;136745;-87
2022/02/05 02:36:34;;;;;;;27.70;16.20;;;;;;;3.89;78.74;98918.58;105266;1283;108007;-86
2022/02/05 02:39:11;;;;;;;27.70;16.40;;;;;;;3.89;78.72;98919.24;105272;1283;139341;-86
2022/02/05 02:41:48;;;;;;;26.40;15.80;;;;;;;3.89;78.52;98914.42;105248;1284;108917;-86
2022/02/05 02:44:21;;;;;;;25.80;15.20;;;;;;;3.91;78.48;98914.90;105763;1279;95283;-86
2022/02/05 02:46:53;;;;;;;26.20;15.70;;;;;;;3.95;78.48;98911.89;105571;1279;137437;-85
2022/02/05 02:49:48;;;;;;;24.40;15.50;;;;;;;3.97;78.38;98912.88;105741;1279;108828;-84
2022/02/05 02:58:05;;;;;;;24.00;14.10;;;;;;;4.04;78.40;98900.64;105329;1284;137171;-83
2022/02/05 03:00:37;;;;;;;22.00;12.90;;;;;;;4.06;77.94;98897.49;105180;1284;95171;-83
2022/02/05 03:03:09;;;;;;;22.80;12.50;;;;;;;4.08;78.04;98891.58;105273;1284;137729;-82
2022/02/05 03:05:41;;;;;;;23.20;13.40;;;;;;;4.13;77.80;98900.72;105050;1285;108809;-82
2022/02/05 03:08:13;;;;;;;25.30;13.20;;;;;;;4.16;77.47;98894.98;105120;1284;108446;-83
2022/02/05 03:10:45;;;;;;;22.40;13.70;;;;;;;4.19;77.48;98893.17;104905;1284;137306;-84
2022/02/05 03:13:17;;;;;;;21.30;13.60;;;;;;;4.19;77.47;98892.98;104948;1285;95047;-84
2022/02/05 03:15:51;;;;;;;23.50;13.40;;;;;;;4.17;77.49;98888.91;104960;1284;136861;-85
2022/02/05 03:18:30;;;;;;;23.00;13.10;;;;;;;4.16;77.66;98891.54;106598;1284;109072;-87
2022/02/05 03:21:02;;;;;;;21.10;12.30;;;;;;;4.17;77.69;98888.58;106457;1283;138602;-87
2022/02/05 03:23:34;;;;;;;21.40;11.70;;;;;;;4.18;77.98;98892.52;106651;1284;93489;-87
2022/02/05 03:26:06;;;;;;;21.40;11.70;;;;;;;4.19;78.53;98891.27;106312;1284;93861;-86
2022/02/05 03:28:41;;;;;;;18.00;12.30;;;;;;;4.16;78.85;98883.08;106428;1284;139157;-86
2022/02/05 03:31:13;;;;;;;19.80;12.50;;;;;;;4.13;79.02;98879.91;106439;1285;107962;-84
2022/02/05 03:33:45;;;;;;;24.00;13.70;;;;;;;4.10;79.23;98879.81;106346;1284;137674;-85
2022/02/05 03:36:17;;;;;;;18.40;11.20;;;;;;;4.09;79.50;98886.20;106848;1281;93895;-85
2022/02/05 03:38:49;;;;;;;22.30;12.30;;;;;;;4.08;79.53;98877.98;107621;1273;95073;-84
2022/02/05 03:41:21;;;;;;;20.20;11.40;;;;;;;4.09;79.64;98877.61;107520;1274;137322;-84
2022/02/05 03:43:53;;;;;;;18.20;10.20;;;;;;;4.10;79.74;98875.67;107647;1273;107888;-84
2022/02/05 03:46:25;;;;;;;17.00;10.80;;;;;;;4.11;79.59;98866.70;107464;1273;137890;-86
2022/02/05 03:48:57;;;;;;;16.20;10.40;;;;;;;4.12;79.67;98859.96;107616;1274;93773;-88
2022/02/05 03:51:29;;;;;;;17.70;11.40;;;;;;;4.16;79.71;98863.34;107498;1273;137924;-84
2022/02/05 03:54:01;;;;;;;19.10;11.00;;;;;;;4.17;79.72;98859.00;107645;1273;109703;-84
2022/02/05 03:56:33;;;;;;;17.40;11.00;;;;;;;4.16;79.75;98860.41;107605;1273;107651;-84
2022/02/05 03:59:05;;;;;;;15.60;10.40;;;;;;;4.15;79.87;98854.58;107470;1273;137464;-83
2022/02/05 04:01:37;;;;;;;19.40;10.40;;;;;;;4.15;79.84;98863.19;107574;1273;93416;-84
2022/02/05 04:04:09;;;;;;;16.90;9.60;;;;;;;4.15;79.99;98848.20;107500;1273;137907;-84
2022/02/05 04:06:41;;;;;;;18.60;9.80;;;;;;;4.15;79.91;98854.23;107621;1273;108791;-85
2022/02/05 04:09:18;;;;;;;15.80;9.10;;;;;;;4.17;80.00;98856.92;107500;1273;137941;-84
2022/02/05 04:11:59;;;;;;;17.50;8.60;;;;;;;4.20;80.03;98859.91;107547;1273;107887;-85
2022/02/05 04:17:21;;;;;;;15.60;9.00;;;;;;;4.25;79.93;98843.79;107479;1273;136487;-87
2022/02/05 04:19:53;;;;;;;15.80;9.30;;;;;;;4.29;79.88;98846.77;107546;1274;109124;-86
2022/02/05 04:22:25;;;;;;;13.70;8.90;;;;;;;4.31;79.98;98844.31;107453;1274;138640;-85
2022/02/05 04:24:57;;;;;;;13.00;8.50;;;;;;;4.33;80.00;98837.56;107601;1272;109326;-86
2022/02/05 04:27:30;;;;;;;11.50;7.20;;;;;;;4.33;79.98;98842.18;107426;1274;137718;-84
2022/02/05 04:30:02;;;;;;;12.30;7.40;;;;;;;4.35;80.03;98843.67;107505;1274;93352;-83
2022/02/05 04:32:34;;;;;;;10.60;6.50;;;;;;;4.38;80.10;98834.29;107602;1274;109623;-81
2022/02/05 04:35:07;;;;;;;11.10;7.10;;;;;;;4.44;80.05;98838.59;107503;1273;138070;-82
2022/02/05 04:37:39;;;;;;;12.80;7.50;;;;;;;4.47;80.07;98847.60;107545;1273;106534;-83
2022/02/05 04:40:24;;;;;;;13.60;8.00;;;;;;;4.49;80.47;98845.84;107488;1274;137021;-83
2022/02/05 04:43:12;;;;;;;13.10;7.50;;;;;;;4.49;80.48;98850.98;107604;1273;93574;-83
2022/02/05 04:46:12;;;;;;;;;;;;;;;4.48;80.64;98861.17;107495;1274;138739;-86
2022/02/05 04:49:00;;;;;;;8.60;5.00;;;;;;;4.49;80.48;98854.95;107628;1273;107073;-86
2022/02/05 04:51:54;;;;;;;4.00;3.00;;;;;;;4.50;79.63;98876.45;107496;1273;137839;-85
2022/02/05 05:00:31;;;;;;;1.70;1.10;;;;;;;4.38;78.54;98903.47;107598;1273;109782;-86
2022/02/05 05:03:25;;;;;;;1.00;0.80;;;;;;;4.26;78.34;98926.52;107522;1274;137465;-88
2022/02/05 05:09:03;;;;;;;0.40;0.40;;;;;;;3.89;77.35;98928.02;107561;1273;93538;-86
2022/02/05 05:11:48;;;;;;;0.50;0.50;;;;;;;3.77;77.49;98948.80;107535;1274;137466;-85
2022/02/05 05:19:58;;;;;;;1.10;0.60;;;;;;;3.51;78.30;98967.31;106812;1274;108916;-86
2022/02/05 05:22:30;;;;;;;0.50;0.50;;;;;;;3.43;78.57;98977.66;105765;1274;136951;-85
2022/02/05 05:25:02;;;;;;;0.50;0.50;;;;;;;3.35;78.46;98978.51;105950;1275;95729;-87
2022/02/05 05:27:34;;;;;;;0.50;0.50;;;;;;;3.30;78.49;99001.33;105542;1274;138196;-86
2022/02/05 05:30:09;;;;;;;0.40;0.40;;;;;;;3.22;78.55;98998.23;105952;1274;107814;-85
2022/02/05 05:32:41;;;;;;;1.70;0.70;;;;;;;3.18;78.62;99029.60;107577;1273;108910;-85
2022/02/05 05:35:13;;;;;;;2.00;0.60;;;;;;;3.13;78.67;99031.77;107467;1273;137180;-83
2022/02/05 05:37:50;;;;;;;1.10;0.70;;;;;;;3.09;78.75;99049.02;107557;1274;93559;-83
2022/02/05 05:40:22;;;;;;;1.30;0.70;;;;;;;3.08;78.61;99055.75;107532;1273;136605;-83
2022/02/05 05:43:00;;;;;;;1.20;0.80;;;;;;;3.05;78.56;99068.15;107621;1273;108763;-82
2022/02/05 05:48:27;;;;;;;0.60;0.60;;;;;;;2.98;78.19;99077.55;107625;1273;93143;-83
2022/02/05 05:50:59;;;;;;;0.90;0.70;;;;;;;2.96;78.02;99093.23;107636;1273;93421;-86
2022/02/05 05:53:31;;;;;;;0.80;0.70;;;;;;;2.96;78.12;99105.09;107516;1273;137101;-85
2022/02/05 05:56:04;;;;;;;0.80;0.70;;;;;;;2.97;78.46;99114.67;107602;1272;108514;-85
2022/02/05 05:58:36;;;;;;;1.90;0.60;;;;;;;2.99;78.28;99115.66;107515;1273;137542;-85
2022/02/05 06:01:09;;;;;;;1.20;0.80;;;;;;;2.97;77.92;99119.32;107664;1273;93311;-84
2022/02/05 06:03:41;;;;;;;1.40;0.70;;;;;;;2.95;77.70;99131.20;107541;1273;136934;-83
2022/02/05 06:06:13;;;;;;;1.10;0.80;;;;;;;2.92;77.21;99126.98;107706;1273;109754;-85
2022/02/05 06:08:45;;;;;;;1.70;0.80;;;;;;;2.88;77.35;99137.87;107665;1273;107849;-84
2022/02/05 06:11:18;;;;;;;1.10;0.90;;;;;;;2.84;77.42;99148.75;107545;1273;136945;-84
2022/02/05 06:13:50;;;;;;;2.00;1.10;;;;;;;2.81;77.32;99161.66;107553;1274;93336;-86
2022/02/05 06:16:29;;;;;;;1.10;0.90;;;;;;;2.79;77.32;99165.67;107501;1273;137321;-86
2022/02/05 06:19:01;;;;;;;1.40;0.90;;;;;;;2.77;77.39;99185.79;107659;1273;109051;-86
2022/02/05 06:21:33;;;;;;;1.20;0.80;;;;;;;2.78;77.66;99189.20;107091;1273;137534;-86
2022/02/05 06:24:06;;;;;;;2.10;1.30;;;;;;;2.79;77.69;99197.61;105900;1274;108965;-86
2022/02/05 06:26:37;;;;;;;3.20;1.60;;;;;;;2.80;77.82;99200.32;105931;1274;95079;-85
2022/02/05 06:29:09;;;;;;;1.90;1.60;;;;;;;2.80;77.94;99208.91;105857;1273;136620;-85
2022/02/05 06:31:41;;;;;;;2.80;1.60;;;;;;;2.76;78.09;99217.91;105896;1274;108835;-85
2022/02/05 06:34:14;;;;;;;3.60;1.70;;;;;;;2.71;78.09;99223.48;105936;1274;136851;-84
2022/02/05 06:36:45;;;;;;;2.50;1.50;;;;;;;2.66;78.37;99223.90;105972;1274;107093;-85
2022/02/05 06:39:17;;;;;;;4.20;1.70;;;;;;;2.63;78.66;99235.27;105885;1273;137787;-85
2022/02/05 06:41:50;;;;;;;2.70;1.90;;;;;;;2.62;78.81;99234.95;106064;1273;97121;-87
2022/02/05 06:44:21;;;;;;;1.60;1.50;;;;;;;2.62;78.81;99234.44;106036;1273;110208;-89
2022/02/05 06:46:54;;;;;;;2.20;1.90;;;;;;;2.63;78.65;99251.25;105918;1273;137986;-88
2022/02/05 06:49:28;;;;;;;4.30;1.80;;;;;;;2.65;78.93;99256.20;106033;1273;107741;-88
2022/02/05 06:52:02;;;;;;;5.40;2.10;;;;;;;2.67;78.83;99250.14;105928;1273;137132;-85
2022/02/05 06:54:34;;;;;;;4.00;2.20;;;;;;;2.68;78.60;99265.21;106071;1273;96585;-85
2022/02/05 06:57:07;;;;;;;5.30;2.20;;;;;;;2.68;78.64;99270.88;106062;1273;111364;-84
2022/02/05 06:59:39;;;;;;;3.70;1.80;;;;;;;2.68;78.52;99279.13;105914;1273;136807;-85
2022/02/05 07:02:12;;;;;;;2.80;1.60;;;;;;;2.68;78.38;99281.69;106064;1273;108932;-85
2022/02/05 07:04:45;;;;;;;3.60;1.40;;;;;;;2.70;78.16;99282.71;105850;1273;137707;-85
2022/02/05 07:07:17;;;;;;;2.40;1.20;;;;;;;2.71;78.41;99293.02;105937;1276;96496;-85
2022/02/05 07:09:49;;;;;;;2.40;1.40;;;;;;;2.75;78.35;99294.83;105961;1273;137696;-84
2022/02/05 07:12:21;;;;;;;3.10;1.60;;;;;;;2.79;78.14;99293.56;106076;1273;108916;-84
2022/02/05 07:15:02;;;;;;;4.00;1.70;;;;;;;2.81;77.88;99297.11;106036;1273;108998;-84
2022/02/05 07:17:43;;;;;;;5.90;1.80;;;;;;;2.80;77.79;99317.73;105915;1273;136919;-85
2022/02/05 07:20:25;;;;;;;4.20;1.60;;;;;;;2.82;77.99;99319.94;105953;1276;96455;-85
2022/02/05 07:23:20;;;;;;;7.30;1.90;;;;;;;2.83;77.46;99326.10;105972;1273;136932;-84
2022/02/05 07:31:28;;;;;;;3.90;1.70;;;;;;;2.85;76.92;99344.77;107630;1273;94918;-84
2022/02/05 07:34:02;;;;;;;5.30;2.00;;;;;;;2.89;76.51;99343.36;107163;1273;138665;-82
2022/02/05 07:36:34;;;;;;;7.10;2.40;;;;;;;2.92;76.65;99350.35;107029;1273;111139;-82
2022/02/05 07:39:07;;;;;;;8.10;2.10;;;;;;;2.98;76.21;99351.97;105947;1274;108069;-82
2022/02/05 07:41:42;;;;;;;8.10;2.60;;;;;;;3.03;75.99;99360.98;105821;1274;136957;-83
2022/02/05 07:44:16;;;;;;;5.60;1.70;;;;;;;3.07;75.74;99364.89;105561;1273;96534;-82
2022/02/05 07:46:51;;;;;;;9.00;2.00;;;;;;;3.10;75.17;99364.67;107413;1273;135877;-83
2022/02/05 07:49:24;;;;;;;7.70;2.00;;;;;;;3.12;75.12;99370.65;107261;1272;110090;-84
2022/02/05 07:51:56;;;;;;;5.20;1.80;;;;;;;3.15;74.75;99373.86;107494;1273;137327;-84
2022/02/05 07:54:28;;;;;;;7.90;2.20;;;;;;;3.17;75.08;99378.80;107297;1273;107866;-84
2022/02/05 07:57:02;;;;;;;7.10;1.90;;;;;;;3.18;75.02;99376.02;107603;1273;95022;-84
2022/02/05 07:59:34;;;;;;;7.20;1.90;;;;;;;3.20;74.75;99382.34;107355;1276;137386;-76
2022/02/05 08:02:09;;;;;;;6.10;1.80;;;;;;;3.23;74.73;99392.45;107507;1274;108357;-79
2022/02/05 08:04:41;;;;;;;5.70;1.70;;;;;;;3.23;74.98;99388.31;107203;1273;139951;-79
2022/02/05 08:07:13;;;;;;;3.90;1.70;;;;;;;3.26;74.72;99390.86;107504;1273;109892;-79
2022/02/05 08:09:54;;;;;;;5.60;1.80;;;;;;;3.27;74.65;99397.55;107456;1273;137560;-80
2022/02/05 08:12:27;;;;;;;5.20;2.10;;;;;;;3.30;74.86;99403.17;107599;1273;95616;-79
2022/02/05 08:15:00;;;;;;;6.00;1.70;;;;;;;3.35;75.05;99404.11;107625;1273;111991;-80
2022/02/05 08:17:35;;;;;;;5.80;2.10;;;;;;;3.44;74.85;99409.30;107526;1273;137186;-79
2022/02/05 08:20:08;;;;;;;10.00;1.90;;;;;;;3.48;74.81;99410.42;107633;1273;108093;-80
2022/02/05 08:22:40;;;;;;;6.30;1.50;;;;;;;3.59;74.63;99407.98;107462;1274;138125;-80
2022/02/05 08:25:12;;;;;;;4.20;1.70;;;;;;;3.69;74.42;99409.89;107564;1274;94861;-80
2022/02/05 08:27:44;;;;;;;3.80;1.40;;;;;;;3.76;74.32;99410.96;107416;1274;137287;-80
2022/02/05 08:30:16;;;;;;;5.60;1.90;;;;;;;3.86;73.80;99410.27;107516;1274;108228;-80
2022/02/05 08:32:48;;;;;;;5.40;1.80;;;;;;;3.89;73.72;99420.70;107609;1274;105856;-80
2022/02/05 08:35:20;;;;;;;6.20;1.80;;;;;;;3.89;73.78;99422.95;107373;1274;138483;-80
2022/02/05 08:37:56;;;;;;;4.90;1.80;;;;;;;3.91;73.69;99426.85;107578;1274;94871;-80
2022/02/05 08:40:28;;;;;;;7.30;2.10;;;;;;;3.94;73.57;99429.38;107446;1274;139535;-79
2022/02/05 08:43:00;;;;;;;5.30;2.10;;;;;;;3.97;73.77;99440.02;107593;1274;109198;-80
2022/02/05 08:45:32;;;;;;;7.80;1.80;;;;;;;3.96;73.47;99434.70;107411;1274;139995;-79
2022/02/05 08:48:05;;;;;;;4.30;2.00;;;;;;;3.94;73.40;99442.63;106414;1274;97944;-79
2022/02/05 08:50:37;;;;;;;7.10;2.40;;;;;;;3.92;73.44;99438.85;106556;1274;96389;-79
2022/02/05 08:53:18;;;;;;;6.20;2.30;;;;;;;3.98;73.30;99449.45;107501;1274;137079;-79
2022/02/05 08:55:51;;;;;;;7.30;2.20;;;;;;;3.98;73.29;99452.89;107487;1274;109240;-80
2022/02/05 08:58:23;;;;;;;5.50;1.90;;;;;;;3.98;73.42;99449.61;107454;1274;138117;-79
2022/02/05 09:01:08;;;;;;;9.10;2.40;;;;;;;3.99;73.25;99448.06;107583;1274;94868;-79
2022/02/05 09:03:46;;;;;;;6.10;2.10;;;;;;;3.95;73.10;99452.42;107474;1274;138533;-79
2022/02/05 09:06:19;;;;;;;9.00;2.60;;;;;;;3.93;73.20;99451.58;107563;1274;108028;-79
2022/02/05 09:08:55;;;;;;;5.10;2.00;;;;;;;3.90;73.26;99451.80;107539;1274;107780;-79
2022/02/05 09:11:35;;;;;;;9.30;3.10;;;;;;;3.84;73.31;99462.06;107398;1274;137751;-79
2022/02/05 09:14:29;;;;;;;7.90;2.40;;;;;;;3.75;73.09;99454.14;107498;1274;94886;-79
2022/02/05 09:17:01;;;;;;;8.00;2.30;;;;;;;3.64;73.33;99466.88;107466;1274;137234;-79
2022/02/05 09:19:35;;;;;;;5.90;2.30;;;;;;;3.58;73.65;99472.64;107548;1274;110045;-79
2022/02/05 09:22:07;;;;;;;9.40;2.50;;;;;;;3.54;73.83;99476.66;107361;1274;138217;-79
2022/02/05 09:24:39;;;;;;;7.90;2.70;;;;;;;3.50;74.07;99477.59;107590;1274;107815;-78
2022/02/05 09:27:12;;;;;;;5.40;2.30;;;;;;;3.49;74.03;99480.70;107571;1274;95054;-79
2022/02/05 09:29:45;;;;;;;6.40;2.30;;;;;;;3.51;74.19;99487.70;107494;1274;139210;-79
2022/02/05 09:32:17;;;;;;;9.70;2.90;;;;;;;3.49;74.18;99494.27;107621;1274;109808;-79
2022/02/05 09:34:49;;;;;;;7.60;3.20;;;;;;;3.51;74.36;99499.92;107409;1274;137093;-79
2022/02/05 09:37:21;;;;;;;11.60;3.20;;;;;;;3.55;74.22;99493.48;106340;1274;107763;-79
2022/02/05 09:39:54;;;;;;;7.30;3.20;;;;;;;3.60;74.17;99493.75;105738;1274;137324;-78
2022/02/05 09:42:25;;;;;;;9.60;3.20;;;;;;;3.62;74.29;99504.90;105958;1274;95770;-78
2022/02/05 09:45:02;;;;;;;10.40;3.40;;;;;;;3.63;74.07;99501.11;105993;1274;111315;-77
2022/02/05 09:47:35;;;;;;;10.40;3.20;;;;;;;3.62;74.12;99507.14;105638;1274;138403;-78
2022/02/05 09:50:08;;;;;;;7.90;2.80;;;;;;;3.62;74.27;99510.92;105940;1274;107670;-78
2022/02/05 09:52:40;;;;;;;8.20;2.70;;;;;;;3.65;73.88;99512.94;107460;1273;137612;-78
2022/02/05 09:55:16;;;;;;;6.90;2.70;;;;;;;3.68;73.98;99508.59;107613;1274;95063;-78
2022/02/05 09:57:48;;;;;;;9.00;3.50;;;;;;;3.74;74.02;99510.20;107514;1274;137462;-77
2022/02/05 10:00:22;;;;;;;9.70;3.30;;;;;;;3.80;73.88;99509.59;107594;1273;107852;-78
2022/02/05 10:02:57;;;;;;;8.90;3.30;;;;;;;3.83;73.70;99514.02;107511;1274;109699;-78
2022/02/05 10:05:32;;;;;;;12.60;3.90;;;;;;;3.83;73.54;99512.13;107446;1274;138366;-80
2022/02/05 10:08:08;;;;;;;14.30;3.80;;;;;;;3.84;73.49;99512.98;107601;1274;95013;-79
2022/02/05 10:10:43;;;;;;;12.50;3.80;;;;;;;3.84;73.51;99512.98;107543;1274;138802;-79
2022/02/05 10:13:18;;;;;;;8.20;3.40;;;;;;;3.82;73.36;99515.77;107604;1274;108031;-79
2022/02/05 10:15:54;;;;;;;11.90;3.20;;;;;;;3.77;73.28;99520.30;107404;1274;137974;-78
2022/02/05 10:18:27;;;;;;;8.90;3.60;;;;;;;3.75;73.54;99516.56;107590;1274;94675;-79
2022/02/05 10:21:01;;;;;;;8.60;3.50;;;;;;;3.75;73.54;99516.38;107518;1274;94753;-79
2022/02/05 10:23:33;;;;;;;14.30;3.20;;;;;;;3.75;73.47;99518.62;107439;1274;137507;-79
2022/02/05 10:26:05;;;;;;;8.30;2.90;;;;;;;3.77;73.51;99521.50;107541;1274;106961;-79
2022/02/05 10:28:38;;;;;;;9.40;3.00;;;;;;;3.81;73.51;99522.66;107502;1274;137499;-79
2022/02/05 10:31:09;;;;;;;12.50;4.10;;;;;;;3.81;73.60;99513.20;107605;1274;94876;-79
2022/02/05 10:33:43;;;;;;;9.70;3.60;;;;;;;3.82;73.72;99516.11;107497;1272;137290;-78
2022/02/05 10:36:25;;;;;;;10.00;3.70;;;;;;;3.81;73.88;99521.80;107589;1274;110428;-78
2022/02/05 10:39:12;;;;;;;9.00;3.50;;;;;;;3.80;74.18;99521.98;107593;1273;107914;-78
2022/02/05 10:44:35;;;;;;;8.40;3.40;;;;;;;3.79;74.30;99522.88;107612;1274;94802;-78
2022/02/05 10:47:08;;;;;;;9.10;3.30;;;;;;;3.77;74.36;99515.66;107507;1273;138883;-79
2022/02/05 10:49:46;;;;;;;7.30;3.00;;;;;;;3.77;74.38;99517.55;107612;1274;110225;-78
2022/02/05 10:52:30;;;;;;;8.40;3.20;;;;;;;3.76;74.62;99518.24;107484;1272;138228;-78
2022/02/05 10:55:11;;;;;;;9.90;3.90;;;;;;;3.84;75.04;99523.46;107579;1273;109014;-79
2022/02/05 10:58:08;;;;;;;14.60;4.10;;;;;;;3.95;75.00;99522.59;107521;1274;138165;-79
2022/02/05 11:06:21;;;;;;;10.10;3.80;;;;;;;4.48;74.67;99526.80;107648;1273;108546;-79
2022/02/05 11:08:54;;;;;;;10.50;4.00;;;;;;;4.67;74.21;99526.94;107571;1273;107694;-79
2022/02/05 11:20:10;;;;;;;8.00;3.60;;;;;;;5.08;73.02;99537.14;107596;1273;107897;-78
2022/02/05 11:22:45;;;;;;;8.90;3.50;;;;;;;5.10;72.68;99542.27;107024;1274;138047;-78
2022/02/05 11:25:19;;;;;;;10.70;3.60;;;;;;;5.07;72.59;99546.45;106053;1273;96511;-78
2022/02/05 11:27:54;;;;;;;10.10;4.10;;;;;;;5.03;72.60;99539.14;105922;1274;137315;-78
2022/02/05 11:30:42;;;;;;;6.30;3.40;;;;;;;4.94;72.25;99540.17;105945;1273;110207;-78
2022/02/05 11:33:28;;;;;;;10.20;3.90;;;;;;;4.81;72.23;99535.09;106008;1274;107735;-78
2022/02/05 11:39:09;;;;;;;9.60;3.90;;;;;;;4.61;72.37;99542.55;105817;1274;96230;-79
2022/02/05 11:41:41;;;;;;;9.50;3.60;;;;;;;4.53;72.18;99539.61;105887;1274;137016;-79
2022/02/05 11:44:23;;;;;;;9.20;3.60;;;;;;;4.46;72.42;99547.31;105955;1273;111921;-79
2022/02/05 11:47:28;;;;;;;14.30;4.30;;;;;;;4.40;72.42;99536.77;105588;1273;137131;-79
2022/02/05 11:50:24;;;;;;;9.30;3.60;;;;;;;4.33;72.51;99555.66;105934;1274;109114;-79
2022/02/05 11:53:12;;;;;;;7.50;3.50;;;;;;;4.28;72.35;99553.50;107468;1273;137702;-79
2022/02/05 11:55:45;;;;;;;12.50;4.30;;;;;;;4.22;72.74;99561.34;107604;1273;94717;-79
2022/02/05 11:58:18;;;;;;;7.80;3.90;;;;;;;4.21;72.84;99561.02;107470;1272;137235;-79
2022/02/05 12:00:58;;;;;;;11.40;3.70;;;;;;;4.20;72.87;99560.36;107605;1274;108695;-80
2022/02/05 12:03:37;;;;;;;10.00;3.90;;;;;;;4.19;73.17;99564.16;107558;1273;108387;-80
2022/02/05 12:06:13;;;;;;;8.50;4.00;;;;;;;4.17;73.14;99560.58;107542;1273;136946;-79
2022/02/05 12:08:49;;;;;;;10.30;4.00;;;;;;;4.16;73.10;99560.08;107594;1273;94393;-79
2022/02/05 12:11:34;;;;;;;11.60;3.60;;;;;;;4.14;73.07;99563.39;107482;1274;137662;-79
2022/02/05 12:14:17;;;;;;;8.80;3.70;;;;;;;4.12;73.14;99552.91;107259;1273;108392;-79
2022/02/05 12:17:16;;;;;;;12.20;3.90;;;;;;;4.13;73.01;99548.59;107144;1273;139072;-80
2022/02/05 12:20:08;;;;;;;9.90;3.80;;;;;;;4.13;72.95;99550.84;107486;1275;94561;-79
2022/02/05 12:23:02;;;;;;;12.80;4.10;;;;;;;4.17;73.13;99550.09;107536;1273;137234;-80
2022/02/05 12:25:55;;;;;;;11.60;4.10;;;;;;;4.27;73.07;99548.52;107610;1273;111155;-79
2022/02/05 12:28:37;;;;;;;7.80;3.90;;;;;;;4.32;72.72;99554.98;107550;1273;137487;-79
2022/02/05 12:31:36;;;;;;;9.50;4.20;;;;;;;4.32;72.66;99561.02;107634;1270;108802;-79
2022/02/05 12:34:14;;;;;;;11.50;4.90;;;;;;;4.28;72.67;99574.14;107189;1273;137244;-79
2022/02/05 12:36:49;;;;;;;8.50;3.90;;;;;;;4.15;72.95;99566.27;107681;1272;94908;-79
2022/02/05 12:39:27;;;;;;;9.90;4.20;;;;;;;3.99;73.20;99575.16;107607;1273;110193;-81
2022/02/05 12:42:02;;;;;;;10.00;4.70;;;;;;;3.87;73.63;99575.17;107500;1274;137930;-80
2022/02/05 12:44:38;;;;;;;12.80;5.00;;;;;;;3.84;74.20;99573.85;107473;1275;107575;-81
2022/02/05 12:47:16;;;;;;;10.00;4.10;;;;;;;3.89;74.35;99571.02;107486;1272;138253;-79
2022/02/05 12:49:54;;;;;;;9.80;4.40;;;;;;;3.99;74.50;99568.45;107616;1272;94689;-80
2022/02/05 12:52:30;;;;;;;9.80;4.50;;;;;;;4.09;74.60;99568.60;107527;1273;138104;-80
2022/02/05 12:55:03;;;;;;;13.20;5.20;;;;;;;4.17;74.81;99571.60;107606;1273;106945;-79
2022/02/05 12:57:36;;;;;;;17.40;5.50;;;;;;;4.23;74.71;99568.21;107627;1273;108232;-79
2022/02/05 13:00:17;;;;;;;10.90;4.70;;;;;;;4.34;74.42;99572.51;107458;1273;137042;-80
2022/02/05 13:02:49;;;;;;;8.10;4.20;;;;;;;4.35;74.35;99571.09;107634;1273;96276;-81
2022/02/05 13:05:31;;;;;;;9.20;4.80;;;;;;;4.33;73.74;99566.16;107479;1274;137732;-81
2022/02/05 13:08:03;;;;;;;8.70;4.40;;;;;;;4.28;73.45;99565.71;107545;1274;106964;-81
2022/02/05 13:10:45;;;;;;;9.50;4.10;;;;;;;4.23;73.64;99567.17;107482;1272;139256;-81
2022/02/05 13:13:17;;;;;;;7.90;3.80;;;;;;;4.18;73.74;99573.98;107563;1270;94410;-81
2022/02/05 13:16:10;;;;;;;8.70;3.50;;;;;;;4.19;73.78;99578.60;107504;1272;137831;-82
2022/02/05 13:18:48;;;;;;;12.30;4.20;;;;;;;4.22;73.98;99562.72;107691;1273;111165;-82
2022/02/05 13:27:13;;;;;;;7.80;4.50;;;;;;;4.40;73.56;99573.25;107645;1273;95808;-82
2022/02/05 13:29:57;;;;;;;8.90;4.40;;;;;;;4.43;73.49;99577.15;107383;1273;136789;-81
2022/02/05 13:35:19;;;;;;;11.30;4.90;;;;;;;4.41;73.29;99577.17;107210;1273;137240;-81
2022/02/05 13:37:52;;;;;;;13.50;5.50;;;;;;;4.40;73.26;99577.05;107358;1273;109242;-82
2022/02/05 13:40:30;;;;;;;11.90;4.70;;;;;;;4.45;72.90;99590.20;107320;1273;138836;-81
2022/02/05 13:43:18;;;;;;;11.00;4.50;;;;;;;4.52;72.84;99589.21;107502;1273;94677;-82
2022/02/05 13:45:52;;;;;;;10.30;4.20;;;;;;;4.60;72.39;99582.00;107211;1273;138293;-82
2022/02/05 13:48:27;;;;;;;11.70;4.50;;;;;;;4.65;72.49;99594.99;107624;1273;108855;-82
2022/02/05 13:51:06;;;;;;;7.70;4.60;;;;;;;4.72;72.46;99595.58;107499;1275;108978;-82
2022/02/05 13:53:51;;;;;;;9.10;4.50;;;;;;;4.74;72.28;99586.21;107500;1273;138527;-82
2022/02/05 13:56:24;;;;;;;17.10;5.50;;;;;;;4.75;72.49;99597.23;107599;1273;94600;-82
2022/02/05 13:58:56;;;;;;;8.60;4.50;;;;;;;4.73;72.58;99591.41;107466;1274;137858;-81